createdAt,value
2022-11-01T00:00:11.061Z,6.02
2022-11-01T00:01:11.101Z,5.48
2022-11-01T00:02:11.175Z,7.56
2022-11-01T00:03:11.066Z,9.16
2022-11-01T00:04:11.066Z,8.36
2022-11-01T00:05:11.067Z,6.16
2022-11-01T00:06:11.065Z,11.86
2022-11-01T00:07:11.065Z,10.80
2022-11-01T00:08:11.066Z,4.94
2022-11-01T00:09:11.063Z,10.48
2022-11-01T00:10:11.098Z,6.94
2022-11-01T00:11:12.066Z,7.94
2022-11-01T00:12:11.065Z,7.02
2022-11-01T00:13:11.068Z,7.64
2022-11-01T00:14:14.065Z,9.88
2022-11-01T00:15:11.065Z,5.74
2022-11-01T00:16:11.067Z,10.28
2022-11-01T00:17:11.068Z,10.28
2022-11-01T00:18:11.076Z,7.46
2022-11-01T00:19:11.070Z,10.90
2022-11-01T00:20:11.068Z,9.94
2022-11-01T00:21:11.057Z,7.04
2022-11-01T00:22:11.059Z,8.72
2022-11-01T00:23:11.058Z,7.36
2022-11-01T00:24:11.054Z,8.70
2022-11-01T00:25:11.060Z,8.90
2022-11-01T00:26:14.061Z,11.46
2022-11-01T00:27:11.057Z,12.64
2022-11-01T00:28:11.058Z,9.44
2022-11-01T00:29:11.062Z,8.62
2022-11-01T00:30:11.058Z,6.86
2022-11-01T00:31:12.777Z,6.48
2022-11-01T00:32:11.061Z,6.00
2022-11-01T00:33:11.059Z,7.22
2022-11-01T00:34:11.057Z,5.92
2022-11-01T00:35:11.058Z,4.68
2022-11-01T00:36:11.058Z,4.68
2022-11-01T00:37:11.058Z,12.92
2022-11-01T00:38:11.060Z,9.32
2022-11-01T00:39:14.059Z,7.52
2022-11-01T00:40:11.059Z,7.06
2022-11-01T00:41:11.068Z,5.72
2022-11-01T00:42:11.059Z,3.46
2022-11-01T00:43:11.089Z,4.88
2022-11-01T00:44:11.066Z,9.40
2022-11-01T00:45:11.060Z,5.50
2022-11-01T00:46:11.059Z,4.46
2022-11-01T00:47:11.068Z,4.94
2022-11-01T00:48:11.059Z,7.92
2022-11-01T00:49:11.064Z,4.40
2022-11-01T00:50:11.068Z,3.84
2022-11-01T00:51:11.060Z,5.80
2022-11-01T00:52:11.063Z,4.68
2022-11-01T00:53:11.071Z,4.66
2022-11-01T00:54:11.063Z,7.24
2022-11-01T00:55:11.066Z,5.06
2022-11-01T00:56:11.071Z,6.60
2022-11-01T00:57:11.059Z,4.72
2022-11-01T00:58:11.064Z,7.38
2022-11-01T00:59:11.071Z,6.04
2022-11-01T01:00:11.060Z,8.50
2022-11-01T01:01:11.162Z,7.70
2022-11-01T01:02:11.147Z,7.64
2022-11-01T01:03:11.064Z,5.32
2022-11-01T01:04:11.059Z,5.32
2022-11-01T01:05:11.070Z,7.80
2022-11-01T01:06:11.065Z,8.24
2022-11-01T01:07:11.058Z,3.30
2022-11-01T01:08:11.070Z,9.56
2022-11-01T01:09:11.060Z,6.08
2022-11-01T01:10:11.067Z,8.10
2022-11-01T01:11:11.071Z,8.44
2022-11-01T01:12:11.062Z,6.54
2022-11-01T01:13:11.065Z,5.58
2022-11-01T01:14:11.070Z,8.44
2022-11-01T01:15:11.065Z,6.76
2022-11-01T01:16:11.064Z,4.50
2022-11-01T01:17:11.070Z,8.06
2022-11-01T01:18:11.064Z,7.02
2022-11-01T01:19:11.062Z,5.62
2022-11-01T01:20:11.074Z,6.72
2022-11-01T01:21:11.061Z,2.44
2022-11-01T01:22:11.055Z,6.26
2022-11-01T01:23:11.065Z,4.68
2022-11-01T01:24:11.066Z,2.66
2022-11-01T01:25:11.056Z,4.22
2022-11-01T01:26:11.070Z,3.58
2022-11-01T01:27:11.061Z,4.04
2022-11-01T01:28:11.057Z,9.20
2022-11-01T01:29:11.061Z,1.90
2022-11-01T01:30:11.061Z,15.32
2022-11-01T01:31:11.059Z,7.10
2022-11-01T01:32:13.061Z,4.24
2022-11-01T01:34:11.058Z,6.00
2022-11-01T01:35:11.061Z,2.84
2022-11-01T01:36:11.069Z,4.68
2022-11-01T01:37:11.062Z,7.42
2022-11-01T01:38:11.064Z,5.40
2022-11-01T01:39:11.070Z,8.30
2022-11-01T01:40:11.064Z,7.02
2022-11-01T01:41:15.062Z,3.50
2022-11-01T01:42:19.068Z,6.96
2022-11-01T01:43:13.061Z,3.60
2022-11-01T01:44:19.061Z,4.26
2022-11-01T01:45:19.062Z,5.92
2022-11-01T01:46:11.061Z,3.92
2022-11-01T01:47:12.062Z,5.00
2022-11-01T01:48:19.058Z,3.16
2022-11-01T01:49:11.062Z,4.26
2022-11-01T01:50:19.068Z,5.90
2022-11-01T01:51:14.088Z,2.70
2022-11-01T01:52:11.081Z,5.06
2022-11-01T01:53:16.075Z,5.48
2022-11-01T01:54:11.070Z,5.22
2022-11-01T01:55:11.062Z,5.20
2022-11-01T01:56:16.062Z,11.14
2022-11-01T01:57:11.069Z,2.20
2022-11-01T01:58:13.065Z,4.14
2022-11-01T01:59:11.063Z,8.28
2022-11-01T02:00:11.062Z,3.90
2022-11-01T02:01:11.214Z,7.56
2022-11-01T02:02:11.085Z,3.98
2022-11-01T02:03:11.062Z,4.82
2022-11-01T02:04:19.065Z,2.30
2022-11-01T02:05:23.071Z,9.16
2022-11-01T02:06:15.115Z,5.40
2022-11-01T02:07:11.065Z,2.86
2022-11-01T02:08:11.071Z,4.42
2022-11-01T02:09:11.062Z,7.62
2022-11-01T02:10:11.064Z,6.82
2022-11-01T02:11:11.071Z,11.00
2022-11-01T02:12:13.061Z,8.62
2022-11-01T02:13:15.072Z,3.92
2022-11-01T02:14:11.073Z,5.54
2022-11-01T02:15:15.063Z,6.42
2022-11-01T02:16:19.068Z,5.36
2022-11-01T02:17:17.067Z,8.54
2022-11-01T02:18:21.066Z,10.56
2022-11-01T02:19:23.066Z,7.78
2022-11-01T02:20:21.063Z,6.04
2022-11-01T02:21:19.056Z,7.00
2022-11-01T02:22:21.057Z,4.80
2022-11-01T02:23:21.059Z,9.42
2022-11-01T02:24:19.068Z,5.86
2022-11-01T02:25:22.058Z,6.16
2022-11-01T02:26:19.057Z,7.02
2022-11-01T02:27:17.059Z,5.98
2022-11-01T02:28:19.059Z,4.72
2022-11-01T02:29:21.061Z,9.60
2022-11-01T02:30:19.058Z,5.80
2022-11-01T02:31:19.056Z,6.56
2022-11-01T02:32:21.057Z,3.70
2022-11-01T02:33:19.059Z,3.32
2022-11-01T02:34:23.066Z,8.58
2022-11-01T02:35:19.058Z,4.94
2022-11-01T02:36:18.057Z,3.22
2022-11-01T02:37:19.059Z,4.00
2022-11-01T02:38:16.058Z,2.66
2022-11-01T02:39:19.062Z,3.70
2022-11-01T02:40:16.057Z,5.28
2022-11-01T02:41:18.054Z,4.32
2022-11-01T02:42:15.059Z,1.10
2022-11-01T02:43:17.059Z,2.24
2022-11-01T02:44:16.059Z,6.74
2022-11-01T02:45:16.055Z,2.68
2022-11-01T02:46:15.059Z,1.56
2022-11-01T02:47:11.067Z,2.26
2022-11-01T02:48:11.057Z,2.72
2022-11-01T02:49:12.061Z,5.36
2022-11-01T02:50:11.068Z,3.38
2022-11-01T02:51:11.061Z,6.60
2022-11-01T02:52:18.060Z,2.18
2022-11-01T02:53:11.060Z,2.16
2022-11-01T02:54:15.061Z,1.70
2022-11-01T02:55:18.058Z,10.06
2022-11-01T02:56:11.060Z,3.80
2022-11-01T02:57:19.066Z,2.56
2022-11-01T02:58:19.066Z,5.28
2022-11-01T02:59:17.060Z,2.30
2022-11-01T03:00:19.062Z,3.04
2022-11-01T03:01:19.214Z,7.56
2022-11-01T03:02:17.078Z,4.14
2022-11-01T03:03:19.064Z,10.92
2022-11-01T03:04:11.064Z,4.82
2022-11-01T03:05:18.078Z,4.98
2022-11-01T03:06:19.072Z,6.98
2022-11-01T03:07:13.065Z,2.16
2022-11-01T03:08:14.059Z,2.58
2022-11-01T03:09:14.063Z,1.52
2022-11-01T03:10:11.065Z,6.62
2022-11-01T03:11:17.063Z,1.86
2022-11-01T03:12:19.126Z,4.96
2022-11-01T03:13:19.064Z,2.42
2022-11-01T03:14:19.064Z,3.54
2022-11-01T03:15:18.065Z,4.90
2022-11-01T03:16:20.060Z,6.90
2022-11-01T03:17:16.060Z,1.74
2022-11-01T03:18:14.061Z,2.22
2022-11-01T03:19:19.064Z,3.54
2022-11-01T03:20:19.061Z,2.12
2022-11-01T03:21:21.050Z,2.46
2022-11-01T03:22:19.056Z,2.46
2022-11-01T03:23:11.057Z,1.10
2022-11-01T03:24:19.055Z,1.32
2022-11-01T03:25:19.053Z,0.98
2022-11-01T03:26:13.056Z,6.44
2022-11-01T03:27:21.063Z,2.12
2022-11-01T03:28:19.057Z,0.98
2022-11-01T03:29:11.053Z,3.36
2022-11-01T03:30:11.056Z,2.18
2022-11-01T03:31:12.055Z,1.06
2022-11-01T03:32:11.054Z,1.36
2022-11-01T03:33:12.055Z,2.26
2022-11-01T03:34:15.064Z,1.96
2022-11-01T03:35:16.053Z,1.70
2022-11-01T03:36:14.598Z,0.92
2022-11-01T03:37:12.055Z,2.38
2022-11-01T03:38:14.057Z,0.92
2022-11-01T03:39:19.052Z,3.00
2022-11-01T03:40:11.055Z,2.28
2022-11-01T03:41:14.057Z,2.64
2022-11-01T03:42:15.057Z,0.84
2022-11-01T03:43:13.058Z,0.82
2022-11-01T03:44:11.063Z,0.68
2022-11-01T03:45:12.143Z,1.72
2022-11-01T03:46:11.059Z,2.38
2022-11-01T03:47:11.129Z,0.20
2022-11-01T03:48:11.058Z,3.16
2022-11-01T03:49:11.053Z,2.02
2022-11-01T03:50:15.079Z,1.34
2022-11-01T03:51:11.059Z,0.36
2022-11-01T03:52:11.056Z,0.64
2022-11-01T03:53:11.059Z,1.80
2022-11-01T03:54:14.058Z,1.04
2022-11-01T03:55:15.054Z,0.56
2022-11-01T03:56:11.058Z,1.88
2022-11-01T03:57:11.065Z,1.84
2022-11-01T03:58:11.059Z,1.32
2022-11-01T03:59:11.065Z,0.98
2022-11-01T04:00:11.066Z,2.50
2022-11-01T04:01:11.162Z,4.94
2022-11-01T04:03:11.067Z,1.46
2022-11-01T04:04:11.087Z,0.44
2022-11-01T04:05:11.084Z,1.34
2022-11-01T04:06:11.067Z,3.08
2022-11-01T04:07:11.068Z,2.60
2022-11-01T04:08:11.074Z,0.64
2022-11-01T04:09:11.065Z,1.76
2022-11-01T04:10:11.060Z,2.58
2022-11-01T04:11:11.061Z,2.46
2022-11-01T04:12:11.064Z,1.18
2022-11-01T04:13:11.063Z,0.84
2022-11-01T04:14:15.070Z,1.00
2022-11-01T04:15:15.067Z,10.44
2022-11-01T04:16:15.080Z,3.82
2022-11-01T04:17:15.070Z,0.56
2022-11-01T04:18:21.060Z,2.94
2022-11-01T04:19:15.063Z,1.52
2022-11-01T04:20:15.074Z,2.82
2022-11-01T04:21:18.061Z,3.08
2022-11-01T04:22:11.074Z,5.56
2022-11-01T04:23:11.085Z,2.94
2022-11-01T04:24:11.064Z,1.60
2022-11-01T04:25:11.106Z,2.28
2022-11-01T04:26:15.073Z,3.28
2022-11-01T04:27:11.081Z,0.90
2022-11-01T04:28:11.085Z,1.54
2022-11-01T04:29:11.078Z,5.08
2022-11-01T04:30:11.068Z,1.64
2022-11-01T04:31:11.068Z,2.70
2022-11-01T04:32:11.062Z,0.72
2022-11-01T04:33:11.055Z,2.84
2022-11-01T04:34:11.081Z,1.98
2022-11-01T04:35:11.185Z,3.30
2022-11-01T04:36:11.058Z,3.40
2022-11-01T04:37:11.065Z,1.82
2022-11-01T04:38:11.073Z,2.38
2022-11-01T04:39:11.081Z,2.42
2022-11-01T04:40:12.059Z,1.46
2022-11-01T04:41:11.069Z,1.42
2022-11-01T04:42:11.069Z,1.30
2022-11-01T04:43:11.062Z,6.56
2022-11-01T04:44:11.079Z,4.22
2022-11-01T04:45:11.068Z,7.36
2022-11-01T04:46:11.070Z,0.64
2022-11-01T04:47:11.071Z,3.76
2022-11-01T04:48:14.080Z,0.62
2022-11-01T04:49:11.070Z,0.56
2022-11-01T04:50:11.091Z,4.10
2022-11-01T04:51:11.073Z,1.94
2022-11-01T04:52:11.095Z,3.56
2022-11-01T04:53:11.080Z,6.76
2022-11-01T04:54:11.081Z,4.24
2022-11-01T04:55:11.088Z,4.90
2022-11-01T04:56:11.061Z,14.58
2022-11-01T04:57:11.087Z,3.42
2022-11-01T04:58:11.066Z,1.90
2022-11-01T04:59:11.084Z,4.18
2022-11-01T05:00:11.070Z,0.92
2022-11-01T05:01:11.172Z,7.00
2022-11-01T05:02:11.183Z,1.82
2022-11-01T05:03:11.093Z,4.92
2022-11-01T05:04:11.062Z,1.96
2022-11-01T05:05:12.058Z,2.84
2022-11-01T05:06:11.080Z,7.00
2022-11-01T05:07:11.062Z,4.94
2022-11-01T05:08:13.064Z,4.30
2022-11-01T05:09:11.091Z,4.48
2022-11-01T05:10:11.064Z,4.88
2022-11-01T05:11:11.060Z,5.18
2022-11-01T05:12:11.071Z,5.06
2022-11-01T05:13:11.067Z,11.60
2022-11-01T05:14:11.062Z,7.92
2022-11-01T05:15:11.063Z,5.62
2022-11-01T05:16:19.397Z,7.36
2022-11-01T05:17:13.404Z,5.58
2022-11-01T05:18:11.063Z,3.90
2022-11-01T05:19:11.064Z,4.72
2022-11-01T05:20:11.062Z,6.94
2022-11-01T05:21:11.058Z,5.84
2022-11-01T05:22:11.059Z,7.08
2022-11-01T05:23:11.056Z,6.86
2022-11-01T05:24:11.057Z,5.84
2022-11-01T05:25:13.057Z,11.96
2022-11-01T05:26:11.057Z,4.08
2022-11-01T05:27:11.057Z,14.34
2022-11-01T05:28:12.064Z,6.62
2022-11-01T05:29:24.493Z,11.10
2022-11-01T05:30:13.075Z,10.80
2022-11-01T05:31:11.075Z,9.16
2022-11-01T05:32:11.059Z,10.18
2022-11-01T05:33:11.062Z,13.48
2022-11-01T05:34:11.065Z,15.00
2022-11-01T05:35:11.061Z,13.96
2022-11-01T05:36:11.059Z,9.54
2022-11-01T05:37:11.057Z,12.70
2022-11-01T05:38:11.061Z,7.20
2022-11-01T05:39:11.058Z,9.22
2022-11-01T05:40:11.058Z,11.52
2022-11-01T05:41:11.064Z,11.32
2022-11-01T05:42:11.061Z,7.12
2022-11-01T05:43:11.060Z,11.50
2022-11-01T05:44:11.066Z,17.16
2022-11-01T05:45:11.066Z,11.92
2022-11-01T05:46:11.057Z,6.44
2022-11-01T05:47:14.620Z,16.68
2022-11-01T05:48:13.192Z,7.74
2022-11-01T05:49:11.059Z,7.30
2022-11-01T05:50:13.059Z,15.32
2022-11-01T05:51:11.069Z,12.60
2022-11-01T05:52:11.059Z,10.50
2022-11-01T05:53:11.063Z,13.82
2022-11-01T05:54:11.067Z,25.80
2022-11-01T05:55:11.063Z,6.44
2022-11-01T05:56:11.057Z,7.68
2022-11-01T05:57:11.064Z,11.16
2022-11-01T05:58:11.061Z,17.50
2022-11-01T05:59:11.061Z,8.92
2022-11-01T06:00:11.060Z,8.98
2022-11-01T06:01:11.095Z,8.82
2022-11-01T06:02:11.135Z,10.92
2022-11-01T06:03:11.060Z,6.76
2022-11-01T06:04:11.062Z,13.70
2022-11-01T06:05:11.060Z,12.06
2022-11-01T06:06:11.062Z,9.20
2022-11-01T06:07:11.065Z,14.18
2022-11-01T06:08:11.059Z,11.18
2022-11-01T06:09:11.062Z,9.98
2022-11-01T06:10:11.064Z,15.70
2022-11-01T06:11:11.060Z,18.90
2022-11-01T06:12:11.063Z,12.02
2022-11-01T06:13:11.073Z,8.24
2022-11-01T06:14:12.096Z,12.56
2022-11-01T06:15:11.109Z,8.08
2022-11-01T06:16:11.083Z,4.06
2022-11-01T06:17:11.062Z,7.80
2022-11-01T06:18:11.064Z,6.98
2022-11-01T06:19:11.115Z,15.80
2022-11-01T06:20:11.082Z,13.30
2022-11-01T06:21:11.086Z,12.78
2022-11-01T06:22:11.139Z,12.50
2022-11-01T06:23:11.088Z,10.74
2022-11-01T06:24:11.073Z,10.10
2022-11-01T06:25:11.062Z,10.58
2022-11-01T06:26:11.062Z,11.62
2022-11-01T06:27:12.746Z,15.58
2022-11-01T06:28:11.087Z,12.58
2022-11-01T06:29:11.067Z,8.68
2022-11-01T06:30:11.086Z,15.00
2022-11-01T06:31:11.093Z,9.02
2022-11-01T06:32:11.085Z,15.10
2022-11-01T06:33:11.061Z,10.72
2022-11-01T06:34:11.067Z,18.22
2022-11-01T06:35:11.061Z,11.78
2022-11-01T06:36:11.058Z,7.34
2022-11-01T06:37:11.057Z,16.10
2022-11-01T06:38:12.061Z,14.12
2022-11-01T06:39:11.065Z,12.00
2022-11-01T06:40:11.065Z,13.62
2022-11-01T06:41:11.088Z,8.74
2022-11-01T06:42:11.130Z,7.30
2022-11-01T06:43:11.080Z,7.00
2022-11-01T06:44:11.060Z,11.52
2022-11-01T06:45:11.085Z,13.74
2022-11-01T06:46:11.065Z,12.04
2022-11-01T06:47:11.060Z,23.86
2022-11-01T06:48:11.093Z,12.78
2022-11-01T06:49:16.309Z,16.06
2022-11-01T06:50:13.159Z,11.32
2022-11-01T06:51:11.060Z,11.70
2022-11-01T06:52:11.064Z,6.84
2022-11-01T06:53:11.059Z,16.58
2022-11-01T06:54:11.060Z,16.88
2022-11-01T06:55:11.062Z,11.32
2022-11-01T06:56:11.059Z,13.56
2022-11-01T06:57:11.061Z,18.94
2022-11-01T06:58:11.069Z,8.88
2022-11-01T06:59:11.061Z,15.10
2022-11-01T07:00:11.063Z,18.62
2022-11-01T07:01:11.152Z,12.64
2022-11-01T07:02:14.221Z,22.86
2022-11-01T07:03:11.058Z,16.78
2022-11-01T07:05:11.062Z,22.28
2022-11-01T07:06:11.060Z,19.84
2022-11-01T07:07:11.062Z,16.88
2022-11-01T07:08:11.070Z,16.70
2022-11-01T07:09:11.066Z,20.78
2022-11-01T07:10:11.064Z,14.26
2022-11-01T07:11:11.069Z,20.04
2022-11-01T07:12:11.064Z,20.96
2022-11-01T07:13:11.061Z,12.94
2022-11-01T07:14:11.065Z,19.20
2022-11-01T07:15:11.064Z,18.16
2022-11-01T07:16:11.064Z,10.94
2022-11-01T07:17:11.063Z,13.62
2022-11-01T07:18:11.064Z,19.72
2022-11-01T07:19:11.062Z,16.66
2022-11-01T07:20:11.063Z,15.00
2022-11-01T07:21:11.065Z,18.08
2022-11-01T07:22:11.057Z,21.96
2022-11-01T07:23:17.076Z,22.40
2022-11-01T07:24:11.066Z,15.56
2022-11-01T07:25:11.060Z,28.62
2022-11-01T07:26:11.056Z,22.16
2022-11-01T07:27:11.058Z,23.12
2022-11-01T07:28:11.060Z,16.06
2022-11-01T07:29:11.061Z,13.30
2022-11-01T07:30:11.063Z,25.96
2022-11-01T07:31:11.064Z,19.54
2022-11-01T07:32:11.059Z,14.96
2022-11-01T07:33:11.059Z,19.34
2022-11-01T07:34:11.060Z,13.00
2022-11-01T07:35:11.057Z,16.78
2022-11-01T07:36:11.061Z,14.96
2022-11-01T07:37:11.070Z,14.76
2022-11-01T07:38:13.029Z,28.12
2022-11-01T07:39:11.057Z,14.06
2022-11-01T07:40:11.069Z,20.78
2022-11-01T07:41:11.064Z,15.62
2022-11-01T07:42:11.056Z,23.02
2022-11-01T07:43:11.060Z,20.68
2022-11-01T07:44:11.062Z,15.04
2022-11-01T07:45:13.182Z,13.64
2022-11-01T07:46:11.061Z,14.00
2022-11-01T07:47:11.062Z,25.22
2022-11-01T07:48:11.059Z,12.48
2022-11-01T07:49:11.063Z,16.58
2022-11-01T07:50:11.062Z,16.42
2022-11-01T07:51:11.062Z,21.52
2022-11-01T07:52:11.064Z,13.50
2022-11-01T07:53:14.075Z,10.38
2022-11-01T07:54:11.064Z,15.62
2022-11-01T07:55:11.061Z,19.06
2022-11-01T07:56:11.064Z,20.24
2022-11-01T07:57:11.063Z,17.58
2022-11-01T07:58:11.062Z,14.90
2022-11-01T07:59:11.063Z,14.72
2022-11-01T08:00:11.070Z,20.36
2022-11-01T08:01:11.296Z,10.66
2022-11-01T08:02:11.175Z,14.70
2022-11-01T08:03:11.064Z,12.30
2022-11-01T08:04:11.063Z,20.54
2022-11-01T08:05:11.062Z,13.48
2022-11-01T08:06:11.131Z,25.24
2022-11-01T08:07:11.072Z,16.06
2022-11-01T08:08:11.062Z,14.52
2022-11-01T08:09:11.072Z,21.76
2022-11-01T08:10:11.067Z,15.46
2022-11-01T08:11:11.066Z,17.34
2022-11-01T08:12:11.064Z,15.20
2022-11-01T08:13:21.074Z,13.50
2022-11-01T08:14:12.153Z,19.14
2022-11-01T08:15:11.066Z,17.14
2022-11-01T08:16:11.067Z,19.12
2022-11-01T08:17:11.070Z,17.70
2022-11-01T08:18:11.065Z,12.54
2022-11-01T08:19:11.064Z,25.68
2022-11-01T08:20:11.075Z,15.86
2022-11-01T08:21:11.059Z,16.58
2022-11-01T08:22:11.057Z,13.34
2022-11-01T08:23:11.056Z,11.02
2022-11-01T08:24:11.061Z,14.86
2022-11-01T08:25:11.059Z,11.74
2022-11-01T08:26:11.059Z,21.70
2022-11-01T08:27:11.066Z,17.74
2022-11-01T08:28:15.060Z,12.54
2022-11-01T08:29:11.056Z,11.60
2022-11-01T08:30:11.063Z,16.80
2022-11-01T08:31:11.060Z,16.32
2022-11-01T08:32:11.055Z,14.14
2022-11-01T08:33:11.062Z,11.54
2022-11-01T08:34:16.003Z,9.58
2022-11-01T08:35:13.178Z,24.88
2022-11-01T08:36:11.062Z,12.58
2022-11-01T08:37:11.066Z,9.46
2022-11-01T08:38:11.059Z,14.14
2022-11-01T08:39:11.072Z,14.70
2022-11-01T08:40:11.068Z,14.22
2022-11-01T08:41:11.062Z,14.20
2022-11-01T08:42:11.058Z,15.96
2022-11-01T08:43:11.062Z,9.56
2022-11-01T08:44:11.062Z,7.66
2022-11-01T08:45:11.073Z,13.54
2022-11-01T08:46:11.067Z,8.36
2022-11-01T08:47:11.061Z,8.48
2022-11-01T08:48:11.059Z,7.34
2022-11-01T08:49:11.064Z,15.30
2022-11-01T08:50:11.498Z,11.40
2022-11-01T08:51:11.061Z,8.44
2022-11-01T08:52:11.061Z,6.98
2022-11-01T08:53:11.062Z,13.44
2022-11-01T08:54:11.060Z,15.44
2022-11-01T08:55:11.062Z,10.56
2022-11-01T08:56:11.062Z,16.28
2022-11-01T08:57:11.062Z,5.88
2022-11-01T08:58:11.081Z,11.44
2022-11-01T08:59:11.065Z,10.84
2022-11-01T09:00:14.059Z,9.80
2022-11-01T09:01:11.174Z,8.58
2022-11-01T09:02:13.255Z,11.36
2022-11-01T09:03:11.065Z,9.84
2022-11-01T09:04:11.059Z,8.62
2022-11-01T09:05:11.072Z,6.26
2022-11-01T09:06:11.065Z,14.36
2022-11-01T09:07:11.059Z,10.58
2022-11-01T09:08:11.062Z,7.84
2022-11-01T09:09:11.064Z,12.44
2022-11-01T09:10:11.065Z,8.48
2022-11-01T09:11:11.074Z,12.32
2022-11-01T09:12:14.536Z,5.36
2022-11-01T09:13:11.060Z,9.24
2022-11-01T09:14:11.067Z,8.36
2022-11-01T09:15:11.066Z,7.54
2022-11-01T09:16:11.066Z,15.00
2022-11-01T09:17:11.071Z,11.28
2022-11-01T09:18:11.068Z,13.78
2022-11-01T09:19:11.062Z,8.92
2022-11-01T09:20:11.093Z,12.66
2022-11-01T09:21:11.060Z,6.22
2022-11-01T09:22:11.061Z,8.20
2022-11-01T09:23:11.062Z,10.50
2022-11-01T09:24:13.098Z,11.46
2022-11-01T09:25:11.057Z,7.82
2022-11-01T09:26:11.067Z,6.54
2022-11-01T09:27:11.061Z,11.72
2022-11-01T09:28:11.056Z,7.12
2022-11-01T09:29:11.067Z,5.78
2022-11-01T09:30:11.059Z,8.70
2022-11-01T09:31:20.792Z,9.44
2022-11-01T09:32:14.231Z,12.44
2022-11-01T09:33:11.064Z,11.36
2022-11-01T09:34:11.056Z,11.08
2022-11-01T09:35:11.063Z,14.08
2022-11-01T09:36:11.062Z,9.86
2022-11-01T09:37:11.058Z,7.50
2022-11-01T09:38:11.063Z,14.58
2022-11-01T09:39:11.062Z,8.42
2022-11-01T09:40:11.060Z,12.28
2022-11-01T09:41:21.064Z,14.44
2022-11-01T09:42:19.068Z,10.66
2022-11-01T09:43:12.064Z,12.20
2022-11-01T09:44:18.058Z,10.48
2022-11-01T09:45:18.061Z,11.48
2022-11-01T09:46:13.140Z,7.78
2022-11-01T09:47:16.063Z,20.48
2022-11-01T09:48:12.061Z,10.10
2022-11-01T09:49:12.061Z,15.66
2022-11-01T09:50:20.063Z,11.94
2022-11-01T09:51:17.061Z,15.26
2022-11-01T09:52:16.064Z,14.90
2022-11-01T09:53:17.065Z,13.40
2022-11-01T09:54:12.073Z,12.52
2022-11-01T09:55:15.064Z,11.84
2022-11-01T09:56:20.066Z,10.50
2022-11-01T09:57:19.085Z,16.02
2022-11-01T09:58:19.071Z,10.98
2022-11-01T09:59:21.065Z,15.16
2022-11-01T10:00:19.065Z,7.98
2022-11-01T10:01:21.218Z,7.00
2022-11-01T10:02:19.121Z,7.36
2022-11-01T10:03:19.066Z,13.94
2022-11-01T10:04:19.065Z,9.64
2022-11-01T10:05:21.064Z,12.00
2022-11-01T10:06:21.063Z,9.72
2022-11-01T10:07:21.062Z,7.76
2022-11-01T10:08:19.063Z,8.48
2022-11-01T10:09:19.072Z,8.10
2022-11-01T10:10:19.063Z,4.84
2022-11-01T10:11:21.063Z,8.48
2022-11-01T10:12:21.060Z,4.60
2022-11-01T10:13:21.064Z,4.56
2022-11-01T10:14:19.077Z,6.14
2022-11-01T10:15:21.065Z,5.10
2022-11-01T10:16:20.066Z,5.30
2022-11-01T10:17:15.063Z,10.20
2022-11-01T10:18:19.066Z,9.58
2022-11-01T10:19:16.078Z,8.54
2022-11-01T10:20:13.077Z,8.50
2022-11-01T10:21:16.056Z,8.76
2022-11-01T10:22:16.063Z,6.86
2022-11-01T10:23:14.066Z,11.72
2022-11-01T10:24:19.060Z,7.34
2022-11-01T10:25:19.059Z,6.56
2022-11-01T10:26:15.058Z,7.22
2022-11-01T10:27:19.067Z,5.28
2022-11-01T10:28:21.060Z,3.62
2022-11-01T10:29:21.056Z,8.58
2022-11-01T10:30:15.057Z,6.38
2022-11-01T10:31:15.057Z,11.60
2022-11-01T10:32:19.061Z,4.38
2022-11-01T10:33:21.058Z,11.16
2022-11-01T10:34:21.059Z,10.06
2022-11-01T10:35:17.060Z,6.80
2022-11-01T10:36:19.063Z,9.32
2022-11-01T10:37:19.061Z,7.20
2022-11-01T10:38:26.630Z,8.96
2022-11-01T10:39:53.276Z,22.82
2022-11-01T10:40:20.339Z,15.70
2022-11-01T10:41:19.061Z,11.18
2022-11-01T10:42:13.069Z,7.64
2022-11-01T10:43:15.064Z,9.66
2022-11-01T10:44:17.064Z,7.02
2022-11-01T10:45:15.061Z,4.60
2022-11-01T10:46:13.071Z,4.80
2022-11-01T10:47:15.059Z,8.08
2022-11-01T10:48:16.067Z,5.34
2022-11-01T10:49:19.070Z,6.14
2022-11-01T10:50:19.165Z,7.86
2022-11-01T10:51:11.064Z,4.74
2022-11-01T10:52:14.062Z,6.54
2022-11-01T10:53:11.109Z,3.46
2022-11-01T10:54:17.062Z,5.48
2022-11-01T10:55:15.060Z,5.80
2022-11-01T10:56:19.863Z,8.10
2022-11-01T10:57:18.090Z,13.92
2022-11-01T10:58:23.062Z,3.94
2022-11-01T10:59:21.065Z,5.30
2022-11-01T11:00:15.060Z,7.04
2022-11-01T11:01:15.152Z,3.56
2022-11-01T11:02:19.207Z,5.40
2022-11-01T11:03:19.064Z,6.12
2022-11-01T11:04:13.067Z,8.60
2022-11-01T11:05:13.064Z,4.76
2022-11-01T11:06:14.071Z,8.38
2022-11-01T11:07:19.972Z,4.50
2022-11-01T11:08:17.114Z,8.98
2022-11-01T11:09:19.063Z,7.22
2022-11-01T11:10:22.774Z,4.66
2022-11-01T11:11:16.078Z,3.50
2022-11-01T11:12:19.068Z,10.18
2022-11-01T11:13:11.067Z,10.24
2022-11-01T11:14:11.071Z,5.80
2022-11-01T11:15:21.071Z,5.64
2022-11-01T11:16:18.064Z,8.32
2022-11-01T11:17:18.094Z,9.42
2022-11-01T11:18:19.083Z,8.04
2022-11-01T11:19:15.074Z,8.96
2022-11-01T11:20:11.065Z,6.04
2022-11-01T11:21:14.055Z,3.84
2022-11-01T11:22:11.056Z,5.04
2022-11-01T11:23:12.060Z,5.18
2022-11-01T11:24:18.067Z,9.62
2022-11-01T11:25:16.061Z,6.46
2022-11-01T11:26:12.065Z,2.98
2022-11-01T11:27:19.063Z,7.82
2022-11-01T11:28:19.062Z,9.28
2022-11-01T11:29:15.060Z,6.90
2022-11-01T11:30:11.066Z,3.44
2022-11-01T11:31:14.058Z,2.86
2022-11-01T11:32:19.061Z,3.04
2022-11-01T11:33:16.057Z,2.80
2022-11-01T11:34:19.070Z,4.18
2022-11-01T11:35:19.061Z,4.92
2022-11-01T11:36:11.060Z,6.78
2022-11-01T11:37:19.086Z,4.84
2022-11-01T11:38:15.064Z,7.86
2022-11-01T11:39:19.060Z,4.00
2022-11-01T11:40:20.063Z,5.84
2022-11-01T11:41:11.058Z,5.74
2022-11-01T11:42:18.059Z,5.30
2022-11-01T11:43:19.070Z,3.54
2022-11-01T11:44:19.061Z,3.38
2022-11-01T11:45:21.059Z,9.06
2022-11-01T11:46:17.064Z,10.98
2022-11-01T11:47:19.067Z,6.08
2022-11-01T11:48:19.062Z,3.16
2022-11-01T11:49:19.058Z,8.46
2022-11-01T11:50:19.059Z,5.92
2022-11-01T11:51:11.060Z,5.66
2022-11-01T11:52:16.071Z,7.82
2022-11-01T11:53:21.059Z,4.66
2022-11-01T11:54:19.063Z,2.78
2022-11-01T11:55:19.065Z,4.60
2022-11-01T11:56:11.062Z,10.76
2022-11-01T11:57:16.063Z,2.92
2022-11-01T11:58:19.061Z,5.98
2022-11-01T11:59:23.057Z,5.30
2022-11-01T12:00:19.065Z,3.28
2022-11-01T12:01:12.142Z,3.84
2022-11-01T12:02:19.205Z,2.84
2022-11-01T12:03:12.165Z,7.14
2022-11-01T12:04:16.063Z,6.22
2022-11-01T12:05:15.082Z,3.42
2022-11-01T12:06:11.065Z,7.24
2022-11-01T12:07:20.065Z,6.50
2022-11-01T12:08:19.072Z,2.62
2022-11-01T12:09:22.898Z,5.20
2022-11-01T12:10:19.065Z,2.44
2022-11-01T12:11:11.066Z,5.64
2022-11-01T12:12:19.067Z,5.46
2022-11-01T12:13:19.072Z,5.40
2022-11-01T12:14:19.101Z,2.74
2022-11-01T12:15:19.063Z,4.04
2022-11-01T12:16:19.111Z,1.42
2022-11-01T12:17:19.062Z,3.92
2022-11-01T12:18:18.073Z,4.98
2022-11-01T12:19:19.063Z,2.06
2022-11-01T12:20:19.061Z,2.38
2022-11-01T12:21:18.066Z,3.92
2022-11-01T12:22:11.058Z,2.88
2022-11-01T12:23:20.058Z,4.78
2022-11-01T12:24:20.058Z,2.74
2022-11-01T12:25:14.069Z,4.26
2022-11-01T12:26:16.686Z,3.44
2022-11-01T12:27:15.060Z,1.66
2022-11-01T12:28:19.055Z,2.50
2022-11-01T12:29:19.060Z,7.42
2022-11-01T12:30:18.085Z,3.22
2022-11-01T12:31:17.077Z,3.08
2022-11-01T12:32:16.059Z,4.14
2022-11-01T12:33:21.061Z,2.86
2022-11-01T12:34:19.067Z,3.22
2022-11-01T12:35:18.060Z,3.86
2022-11-01T12:36:11.061Z,0.90
2022-11-01T12:37:19.059Z,3.40
2022-11-01T12:38:19.068Z,3.36
2022-11-01T12:39:19.061Z,6.40
2022-11-01T12:40:19.058Z,5.48
2022-11-01T12:41:19.057Z,0.68
2022-11-01T12:42:14.064Z,3.06
2022-11-01T12:43:19.061Z,1.76
2022-11-01T12:44:21.058Z,4.74
2022-11-01T12:45:20.060Z,5.38
2022-11-01T12:46:21.073Z,4.00
2022-11-01T12:47:19.066Z,3.80
2022-11-01T12:48:18.070Z,6.76
2022-11-01T12:49:21.063Z,2.38
2022-11-01T12:50:18.060Z,2.64
2022-11-01T12:51:15.063Z,3.78
2022-11-01T12:52:19.069Z,6.30
2022-11-01T12:53:20.064Z,3.70
2022-11-01T12:54:19.065Z,7.48
2022-11-01T12:55:20.752Z,3.86
2022-11-01T12:56:11.063Z,5.76
2022-11-01T12:57:15.072Z,3.96
2022-11-01T12:58:16.241Z,6.56
2022-11-01T12:59:12.063Z,2.44
2022-11-01T13:00:15.061Z,4.24
2022-11-01T13:01:19.199Z,5.14
2022-11-01T13:02:19.127Z,4.78
2022-11-01T13:03:19.061Z,2.06
2022-11-01T13:04:19.067Z,1.70
2022-11-01T13:05:19.071Z,3.72
2022-11-01T13:06:21.064Z,6.28
2022-11-01T13:07:21.061Z,3.08
2022-11-01T13:08:21.061Z,3.08
2022-11-01T13:09:19.065Z,3.42
2022-11-01T13:10:19.066Z,4.12
2022-11-01T13:11:19.076Z,3.04
2022-11-01T13:12:19.065Z,4.30
2022-11-01T13:13:19.064Z,4.40